Time;durP1;ratioP1;P1;durP2;ratioP2;P2;SDS_P1;SDS_P2;PMS_P1;PMS_P2;Temp;Humidity;BMP_temperature;BMP_pressure;BME280_temperature;BME280_humidity;BME280_pressure;Samples;Min_cycle;Max_cycle;Signal;HPM_P1;HPM_P2
2023/05/09 00:00:55;;;;;;;63.30;32.15;;;13.60;99.90;;;12.80;100.00;97628.94;6152163;23;20463;-76
2023/05/09 00:03:21;;;;;;;55.27;28.43;;;13.70;99.90;;;12.84;100.00;97635.34;6152315;23;20452;-76
2023/05/09 00:05:47;;;;;;;57.40;29.05;;;13.70;99.90;;;12.89;100.00;97623.91;6152557;23;20830;-76
2023/05/09 00:08:14;;;;;;;58.90;29.60;;;13.80;99.90;;;12.94;100.00;97624.72;6152416;23;20704;-76
2023/05/09 00:10:41;;;;;;;59.78;29.50;;;13.80;99.90;;;12.97;100.00;97624.22;6151924;23;20393;-76
2023/05/09 00:13:07;;;;;;;54.28;27.65;;;13.80;99.90;;;13.02;100.00;97631.41;6152250;23;20458;-76
2023/05/09 00:15:33;;;;;;;60.72;29.08;;;13.90;99.90;;;13.05;100.00;97630.91;6152228;23;20402;-76
2023/05/09 00:17:59;;;;;;;54.50;26.98;;;13.90;99.90;;;13.07;100.00;97626.94;6152034;23;20413;-76
2023/05/09 00:20:24;;;;;;;58.53;29.40;;;14.00;99.90;;;13.11;100.00;97620.03;6150379;23;20459;-76
2023/05/09 00:22:51;;;;;;;58.58;28.65;;;14.00;99.90;;;13.13;100.00;97611.81;6152926;23;20783;-76
2023/05/09 00:25:17;;;;;;;62.65;31.02;;;14.00;99.90;;;13.14;100.00;97618.75;6154078;23;20740;-76
2023/05/09 00:27:44;;;;;;;52.00;26.98;;;14.00;99.90;;;13.14;100.00;97614.22;6154123;23;20458;-76
2023/05/09 00:30:12;;;;;;;55.00;28.73;;;14.00;99.90;;;13.15;100.00;97601.72;6153739;23;20385;-76
2023/05/09 00:32:40;;;;;;;61.77;29.90;;;14.00;99.90;;;13.17;100.00;97599.59;6154129;23;20458;-76
2023/05/09 00:35:07;;;;;;;55.95;28.38;;;14.00;99.90;;;13.15;100.00;97599.88;6153998;23;20926;-76
2023/05/09 00:37:33;;;;;;;70.00;35.85;;;14.00;99.90;;;13.17;100.00;97600.38;6153509;23;20406;-76
2023/05/09 00:39:59;;;;;;;53.53;28.42;;;14.00;99.90;;;13.17;100.00;97597.72;6153716;23;20890;-76
2023/05/09 00:42:25;;;;;;;61.35;32.53;;;14.00;99.90;;;13.22;100.00;97596.97;6154287;23;20367;-76
2023/05/09 00:44:52;;;;;;;55.72;31.35;;;14.10;99.90;;;13.21;100.00;97598.03;6153997;23;20730;-76
2023/05/09 00:47:19;;;;;;;70.97;35.65;;;14.10;99.90;;;13.22;100.00;97588.19;6152365;23;20387;-76
2023/05/09 00:49:45;;;;;;;68.45;35.78;;;14.10;99.90;;;13.18;100.00;97588.69;6153580;23;20399;-76
2023/05/09 00:52:11;;;;;;;52.75;29.55;;;14.00;99.90;;;13.17;100.00;97586.31;6153948;23;20455;-76
2023/05/09 00:54:37;;;;;;;55.75;29.70;;;14.00;99.90;;;13.18;100.00;97587.91;6153865;23;20403;-76
2023/05/09 00:57:03;;;;;;;49.65;27.17;;;14.00;99.90;;;13.18;100.00;97580.72;6153833;23;20462;-76
2023/05/09 00:59:29;;;;;;;55.30;29.48;;;14.00;99.90;;;13.21;100.00;97571.44;6153760;23;20889;-76
2023/05/09 01:01:57;;;;;;;65.72;33.88;;;14.10;99.90;;;13.24;100.00;97576.22;6153666;23;20391;-76
2023/05/09 01:04:23;;;;;;;66.75;33.92;;;14.10;99.90;;;13.27;100.00;97574.91;6153588;23;20375;-76
2023/05/09 01:07:01;;;;;;;69.53;35.85;;;14.10;99.90;;;13.27;100.00;97570.38;6153710;23;20363;-76
2023/05/09 01:09:37;;;;;;;60.53;30.95;;;14.10;99.90;;;13.26;100.00;97571.44;6153613;23;20374;-76
2023/05/09 01:12:15;;;;;;;64.78;32.92;;;14.10;99.90;;;13.27;100.00;97569.59;6153749;23;20371;-76
2023/05/09 01:14:53;;;;;;;60.45;31.15;;;14.10;99.90;;;13.26;100.00;97560.81;6153685;23;20454;-76
2023/05/09 01:17:33;;;;;;;55.22;29.20;;;14.10;99.90;;;13.26;100.00;97562.66;6153610;23;20383;-76
2023/05/09 01:20:09;;;;;;;65.65;33.05;;;14.10;99.90;;;13.26;100.00;97560.81;6153313;23;20461;-76
2023/05/09 01:22:38;;;;;;;75.18;36.63;;;14.10;99.90;;;13.27;100.00;97561.59;6153794;23;20815;-76
2023/05/09 01:25:42;;;;;;;79.85;37.90;;;14.10;99.90;;;13.28;100.00;97561.34;6153695;23;20382;-76
2023/05/09 01:28:18;;;;;;;64.93;32.58;;;14.10;99.90;;;13.30;100.00;97561.09;6152304;23;20423;-76
2023/05/09 01:30:49;;;;;;;78.72;39.15;;;14.10;99.90;;;13.29;100.00;97562.94;6153043;23;20747;-76
2023/05/09 01:33:18;;;;;;;60.43;32.20;;;14.10;99.90;;;13.29;100.00;97568.28;6151950;23;20429;-76
2023/05/09 01:35:51;;;;;;;62.22;33.10;;;14.10;99.90;;;13.28;100.00;97563.22;6152931;23;20482;-76
2023/05/09 01:38:22;;;;;;;58.27;32.10;;;14.10;99.90;;;13.26;100.00;97555.50;6153494;23;20374;-76
2023/05/09 01:40:53;;;;;;;75.35;39.50;;;14.10;99.90;;;13.27;100.00;97550.97;6153080;23;20368;-76
2023/05/09 01:43:22;;;;;;;78.43;40.78;;;14.10;99.90;;;13.26;100.00;97547.50;6153064;23;20454;-76
2023/05/09 01:45:54;;;;;;;63.90;34.20;;;14.10;99.90;;;13.25;100.00;97548.56;6152698;23;20703;-76
2023/05/09 01:48:21;;;;;;;57.78;30.38;;;14.10;99.90;;;13.25;100.00;97553.88;6153381;23;20878;-76
2023/05/09 01:50:47;;;;;;;79.78;40.22;;;14.10;99.90;;;13.24;100.00;97546.97;6153075;23;20519;-76
2023/05/09 01:53:16;;;;;;;62.60;31.75;;;14.10;99.90;;;13.22;100.00;97543.00;6153434;23;20426;-76
2023/05/09 01:55:43;;;;;;;67.55;35.55;;;14.00;99.90;;;13.18;100.00;97545.38;6153201;23;20394;-76
2023/05/09 01:58:10;;;;;;;60.50;30.73;;;14.00;99.90;;;13.13;100.00;97542.72;6153629;23;20367;-76
2023/05/09 02:00:37;;;;;;;57.35;29.33;;;14.00;99.90;;;13.08;100.00;97532.06;6152937;23;20729;-76
2023/05/09 02:03:06;;;;;;;66.43;32.90;;;14.00;99.90;;;13.04;100.00;97533.63;6153036;23;20401;-76
2023/05/09 02:05:32;;;;;;;76.18;37.78;;;13.90;99.90;;;13.00;100.00;97543.19;6153208;23;20371;-76
2023/05/09 02:07:58;;;;;;;56.28;28.05;;;13.80;99.90;;;12.91;100.00;97542.09;6153207;23;20707;-76
2023/05/09 02:10:26;;;;;;;75.15;37.88;;;13.80;99.90;;;12.89;100.00;97553.00;6152874;23;20421;-76
2023/05/09 02:12:53;;;;;;;68.95;34.28;;;13.80;99.90;;;12.86;100.00;97552.69;6153249;23;20540;-76
2023/05/09 02:15:19;;;;;;;71.63;36.35;;;13.70;99.90;;;12.79;100.00;97548.44;6153168;23;20363;-76
2023/05/09 02:17:45;;;;;;;53.40;28.53;;;13.70;99.90;;;12.75;100.00;97552.69;6152969;23;20391;-76
2023/05/09 02:20:13;;;;;;;65.32;32.00;;;13.60;99.90;;;12.74;100.00;97551.09;6152656;23;20780;-76
2023/05/09 02:22:41;;;;;;;74.13;35.00;;;13.60;99.90;;;12.75;100.00;97543.91;6153067;23;20374;-76
2023/05/09 02:25:09;;;;;;;77.20;35.10;;;13.60;99.90;;;12.74;100.00;97545.78;6153116;23;20374;-76
2023/05/09 02:27:38;;;;;;;58.23;29.00;;;13.60;99.90;;;12.74;100.00;97553.75;6153016;23;20431;-76
2023/05/09 02:30:11;;;;;;;61.28;30.60;;;13.60;99.90;;;12.74;100.00;97547.63;6152646;23;20456;-76
2023/05/09 02:32:39;;;;;;;62.78;30.92;;;13.60;99.90;;;12.74;100.00;97542.31;6152978;23;20751;-76
2023/05/09 02:35:08;;;;;;;60.92;29.60;;;13.60;99.90;;;12.76;100.00;97543.66;6152996;23;20739;-76
2023/05/09 02:37:37;;;;;;;84.22;39.35;;;13.60;99.90;;;12.79;100.00;97545.78;6152448;23;20386;-76
2023/05/09 02:40:06;;;;;;;68.93;35.08;;;13.60;99.90;;;12.74;100.00;97545.78;6152661;23;20367;-76
2023/05/09 02:42:32;;;;;;;58.30;28.17;;;13.60;99.90;;;12.71;100.00;97543.63;6152852;23;20688;-76
2023/05/09 02:44:58;;;;;;;58.10;29.75;;;13.60;99.90;;;12.71;100.00;97534.84;6152921;23;20371;-76
2023/05/09 02:47:25;;;;;;;55.55;28.38;;;13.60;99.90;;;12.71;100.00;97535.66;6151744;23;20367;-76
2023/05/09 02:49:51;;;;;;;69.90;33.22;;;13.60;99.90;;;12.72;100.00;97531.94;6152335;23;20371;-76
2023/05/09 02:52:16;;;;;;;76.00;34.90;;;13.60;99.90;;;12.70;100.00;97523.47;6152785;23;20367;-76
2023/05/09 02:54:44;;;;;;;74.78;35.20;;;13.60;99.90;;;12.69;100.00;97526.38;6152815;23;20454;-76
2023/05/09 02:57:10;;;;;;;65.38;31.40;;;13.50;99.90;;;12.64;100.00;97516.50;6152696;23;20387;-76
2023/05/09 02:59:36;;;;;;;67.00;32.83;;;13.50;99.90;;;12.62;100.00;97509.88;6152386;23;20463;-75
2023/05/09 03:02:02;;;;;;;67.78;32.47;;;13.50;99.90;;;12.62;100.00;97507.22;6152276;23;20442;-76
2023/05/09 03:04:28;;;;;;;85.75;39.45;;;13.50;99.90;;;12.61;100.00;97502.97;6151363;23;20429;-76
2023/05/09 03:06:54;;;;;;;75.05;35.45;;;13.50;99.90;;;12.59;100.00;97499.78;6152759;23;20907;-76
2023/05/09 03:09:20;;;;;;;79.20;36.00;;;13.50;99.90;;;12.59;100.00;97505.09;6152512;23;20406;-76
2023/05/09 03:11:47;;;;;;;86.65;38.88;;;13.50;99.90;;;12.60;100.00;97501.38;6152618;23;20371;-76
2023/05/09 03:14:14;;;;;;;72.95;34.20;;;13.50;99.90;;;12.59;100.00;97503.22;6153071;23;20365;-76
2023/05/09 03:16:40;;;;;;;74.30;34.88;;;13.50;99.90;;;12.60;100.00;97502.16;6152543;23;20387;-76
2023/05/09 03:19:06;;;;;;;71.93;33.83;;;13.50;99.90;;;12.62;100.00;97507.22;6152632;23;20374;-76
2023/05/09 03:21:32;;;;;;;70.55;31.88;;;13.50;99.90;;;12.62;100.00;97505.38;6152298;23;20371;-76
2023/05/09 03:23:58;;;;;;;66.07;31.25;;;13.50;99.90;;;12.62;100.00;97509.88;6152583;23;20457;-76
2023/05/09 03:26:25;;;;;;;58.33;28.05;;;13.50;99.90;;;12.61;100.00;97506.44;6152134;23;20367;-76
2023/05/09 03:28:52;;;;;;;74.00;33.65;;;13.50;99.90;;;12.62;100.00;97499.25;6152687;23;20419;-76
2023/05/09 03:31:18;;;;;;;68.35;30.40;;;13.50;99.90;;;12.60;100.00;97491.53;6152142;23;20374;-76
2023/05/09 03:33:44;;;;;;;74.80;34.30;;;13.50;99.90;;;12.61;100.00;97495.81;6152619;23;20426;-76
2023/05/09 03:36:10;;;;;;;90.32;38.20;;;13.50;99.90;;;12.61;100.00;97497.66;6151904;23;20367;-76
2023/05/09 03:38:36;;;;;;;75.20;35.67;;;13.50;99.90;;;12.57;100.00;97485.94;6152436;23;20375;-74
2023/05/09 03:41:02;;;;;;;78.25;36.28;;;13.40;99.90;;;12.55;100.00;97493.41;6150075;23;20771;-75
2023/05/09 03:43:29;;;;;;;68.47;33.72;;;13.40;99.90;;;12.53;100.00;97493.66;6150228;23;20450;-75
2023/05/09 03:45:57;;;;;;;67.50;31.48;;;13.40;99.90;;;12.51;100.00;97490.44;6150247;23;20434;-75
2023/05/09 03:48:23;;;;;;;86.30;39.28;;;13.40;99.90;;;12.53;100.00;97493.66;6150574;23;20699;-74
2023/05/09 03:50:49;;;;;;;95.80;42.28;;;13.40;99.90;;;12.52;100.00;97485.94;6149852;23;20371;-75
2023/05/09 03:53:15;;;;;;;89.90;41.58;;;13.40;99.90;;;12.52;100.00;97485.94;6151519;23;20377;-74
2023/05/09 03:55:42;;;;;;;104.50;46.58;;;13.40;99.90;;;12.53;100.00;97482.22;6151801;23;20455;-74
2023/05/09 03:58:08;;;;;;;81.63;38.88;;;13.40;99.90;;;12.53;100.00;97488.34;6151725;23;20387;-74
2023/05/09 04:00:34;;;;;;;75.57;36.53;;;13.40;99.90;;;12.52;100.00;97488.59;6154521;23;20818;-74
2023/05/09 04:03:01;;;;;;;94.40;44.60;;;13.40;99.90;;;12.53;100.00;97488.34;6152719;23;20370;-74
2023/05/09 04:05:27;;;;;;;94.05;46.25;;;13.40;99.90;;;12.50;100.00;97488.84;6153143;23;20822;-74
2023/05/09 04:07:53;;;;;;;70.15;35.60;;;13.40;99.90;;;12.50;100.00;97483.53;6153746;23;20788;-74
2023/05/09 04:10:19;;;;;;;81.30;38.83;;;13.40;99.90;;;12.50;100.00;97486.19;6154088;23;20414;-74
2023/05/09 04:12:45;;;;;;;75.22;35.13;;;13.40;99.90;;;12.49;100.00;97487.25;6153416;23;20446;-74
2023/05/09 04:15:11;;;;;;;77.97;36.28;;;13.40;99.90;;;12.48;100.00;97477.69;6154114;23;20449;-74
2023/05/09 04:17:37;;;;;;;72.90;33.55;;;13.40;99.90;;;12.48;100.00;97490.19;6153821;23;20387;-74
2023/05/09 04:20:07;;;;;;;66.60;31.30;;;13.40;99.90;;;12.47;100.00;97478.75;6154335;23;20755;-74
2023/05/09 04:22:33;;;;;;;82.47;35.92;;;13.40;99.90;;;12.48;100.00;97483.00;6154744;23;20367;-74
2023/05/09 04:24:59;;;;;;;66.00;31.60;;;13.40;99.90;;;12.46;100.00;97479.81;6154633;23;20371;-74
2023/05/09 04:27:26;;;;;;;71.00;33.00;;;13.40;99.90;;;12.47;100.00;97483.28;6154574;23;20374;-74
2023/05/09 04:29:52;;;;;;;73.25;33.53;;;13.40;99.90;;;12.47;100.00;97476.13;6154333;23;20819;-74
2023/05/09 04:32:19;;;;;;;97.53;42.33;;;13.40;99.90;;;12.49;100.00;97484.59;6154083;23;20527;-74
2023/05/09 04:34:45;;;;;;;75.90;34.83;;;13.40;99.90;;;12.47;100.00;97475.31;6154070;23;20395;-74
2023/05/09 04:37:12;;;;;;;75.40;35.40;;;13.40;99.90;;;12.46;100.00;97473.72;6153509;23;20389;-75
2023/05/09 04:39:38;;;;;;;69.25;32.22;;;13.30;99.90;;;12.47;100.00;97481.41;6153659;23;20897;-74
2023/05/09 04:42:04;;;;;;;73.83;35.40;;;13.30;99.90;;;12.50;100.00;97486.19;6153959;23;20371;-74
2023/05/09 04:44:31;;;;;;;65.20;31.77;;;13.40;99.90;;;12.52;100.00;97484.09;6154157;23;20395;-74
2023/05/09 04:46:57;;;;;;;70.00;32.17;;;13.40;99.90;;;12.58;100.00;97495.50;6153957;23;20707;-74
2023/05/09 04:49:23;;;;;;;61.65;29.30;;;13.40;99.90;;;12.64;100.00;97489.16;6153929;23;20374;-74
2023/05/09 04:51:49;;;;;;;65.68;30.77;;;13.50;99.90;;;12.71;100.00;97484.38;6153848;23;20402;-74
2023/05/09 04:54:16;;;;;;;63.40;31.27;;;13.60;99.90;;;12.77;100.00;97488.69;6152954;23;20374;-74
2023/05/09 04:56:42;;;;;;;62.97;30.73;;;13.60;99.90;;;12.84;100.00;97485.78;6153754;23;20743;-74
2023/05/09 04:59:08;;;;;;;76.85;36.50;;;13.70;99.90;;;12.90;100.00;97490.81;6153480;23;20382;-75
2023/05/09 05:01:34;;;;;;;67.93;34.33;;;13.70;99.90;;;12.95;100.00;97490.03;6153531;23;20429;-74
2023/05/09 05:04:00;;;;;;;60.75;30.85;;;13.70;99.90;;;12.98;100.00;97489.50;6153564;23;20821;-74
2023/05/09 05:06:26;;;;;;;51.47;28.10;;;13.80;99.90;;;13.04;100.00;97483.13;6152164;23;20363;-74
2023/05/09 05:08:52;;;;;;;56.83;29.63;;;13.90;99.90;;;13.09;100.00;97486.59;6152709;23;20371;-74
2023/05/09 05:11:20;;;;;;;49.60;26.53;;;13.90;99.90;;;13.16;100.00;97481.03;6152059;23;20411;-74
2023/05/09 05:13:46;;;;;;;57.83;30.25;;;14.00;99.90;;;13.21;100.00;97481.06;6152006;23;21001;-74
2023/05/09 05:16:12;;;;;;;50.53;27.27;;;14.00;99.90;;;13.23;100.00;97484.22;6153420;23;20367;-74
2023/05/09 05:18:38;;;;;;;57.75;30.08;;;14.00;99.90;;;13.25;100.00;97482.13;6153597;23;20405;-74
2023/05/09 05:21:04;;;;;;;51.95;29.27;;;14.00;99.90;;;13.27;100.00;97487.97;6153220;23;20747;-75
2023/05/09 05:23:29;;;;;;;45.27;26.03;;;14.10;99.90;;;13.29;100.00;97480.53;6153473;23;20391;-75
2023/05/09 05:25:55;;;;;;;48.50;25.87;;;14.10;99.90;;;13.31;100.00;97478.38;6153524;23;20454;-74
2023/05/09 05:28:22;;;;;;;47.70;26.47;;;14.10;99.90;;;13.33;100.00;97473.63;6153529;23;20691;-74
2023/05/09 05:30:48;;;;;;;49.55;26.63;;;14.20;99.90;;;13.37;100.00;97477.34;6153237;23;20378;-74
2023/05/09 05:33:15;;;;;;;46.92;25.15;;;14.20;99.90;;;13.40;100.00;97470.69;6153856;23;20371;-75
2023/05/09 05:35:41;;;;;;;52.67;29.77;;;14.20;99.90;;;13.40;100.00;97471.47;6153641;23;20371;-74
2023/05/09 05:38:07;;;;;;;44.70;26.13;;;14.20;99.90;;;13.40;100.00;97473.34;6153830;23;20414;-74
2023/05/09 05:40:32;;;;;;;44.13;24.70;;;14.20;99.90;;;13.45;100.00;97473.34;6153158;23;20823;-75
2023/05/09 05:42:58;;;;;;;41.40;24.83;;;14.30;99.90;;;13.48;100.00;97472.81;6153371;23;20505;-74
2023/05/09 05:45:25;;;;;;;43.75;25.88;;;14.30;99.90;;;13.49;100.00;97474.41;6153415;23;20371;-74
2023/05/09 05:47:51;;;;;;;40.75;25.50;;;14.30;99.90;;;13.53;100.00;97473.59;6153354;23;20370;-75
2023/05/09 05:50:17;;;;;;;43.73;28.07;;;14.30;99.90;;;13.46;100.00;97473.06;6152962;23;20374;-75
2023/05/09 05:52:43;;;;;;;36.78;22.80;;;14.20;99.90;;;13.54;100.00;97469.88;6153409;23;20371;-74
2023/05/09 05:55:09;;;;;;;44.30;25.13;;;14.40;99.90;;;13.63;100.00;97475.47;6153489;23;20860;-74
2023/05/09 05:57:36;;;;;;;47.45;28.70;;;14.40;99.90;;;13.65;100.00;97465.34;6153205;23;20409;-74
2023/05/09 06:00:06;;;;;;;43.17;26.02;;;14.40;99.90;;;13.67;100.00;97465.09;6152907;23;20402;-74
2023/05/09 06:02:33;;;;;;;49.78;28.17;;;14.50;99.90;;;13.70;100.00;97460.00;6153455;23;20453;-74
2023/05/09 06:04:59;;;;;;;44.37;27.90;;;14.50;99.90;;;13.71;100.00;97458.94;6153054;23;20381;-74
2023/05/09 06:07:26;;;;;;;35.20;23.27;;;14.50;99.90;;;13.84;100.00;97461.03;6153280;23;20367;-75
2023/05/09 06:09:51;;;;;;;40.88;25.35;;;14.60;99.90;;;13.93;100.00;97462.09;6152858;23;20374;-74
2023/05/09 06:12:18;;;;;;;44.27;26.77;;;14.70;99.90;;;13.73;100.00;97461.34;6153058;23;20925;-75
2023/05/09 06:14:43;;;;;;;44.37;27.93;;;14.50;99.90;;;13.88;100.00;97458.66;6153058;23;20379;-74
2023/05/09 06:17:10;;;;;;;47.38;29.67;;;14.60;99.90;;;13.90;100.00;97457.31;6152833;23;20406;-74
2023/05/09 06:19:37;;;;;;;40.47;26.35;;;14.70;99.90;;;13.98;100.00;97452.53;6152994;23;20790;-74
2023/05/09 06:22:03;;;;;;;45.45;26.63;;;14.70;99.90;;;14.01;100.00;97450.09;6153118;23;20375;-75
2023/05/09 06:24:29;;;;;;;40.33;25.83;;;14.80;99.90;;;14.01;100.00;97449.28;6153244;23;20398;-74
2023/05/09 06:26:55;;;;;;;42.35;26.88;;;14.70;99.90;;;14.00;100.00;97442.38;6153165;23;20367;-74
2023/05/09 06:29:21;;;;;;;44.80;28.50;;;14.80;99.90;;;14.07;100.00;97440.22;6152882;23;20425;-74
2023/05/09 06:31:46;;;;;;;38.70;25.15;;;14.80;99.90;;;14.05;100.00;97439.72;6152755;23;20395;-74
2023/05/09 06:34:12;;;;;;;41.05;26.90;;;14.80;99.90;;;13.98;100.00;97439.22;6152798;23;20367;-75
2023/05/09 06:36:39;;;;;;;45.60;29.27;;;14.70;99.90;;;13.87;100.00;97449.06;6153037;23;20383;-74
2023/05/09 06:39:05;;;;;;;46.25;28.50;;;14.60;99.90;;;13.87;100.00;97441.91;6152702;23;20367;-74
2023/05/09 06:41:31;;;;;;;47.37;30.10;;;14.60;99.90;;;13.81;100.00;97436.84;6152331;23;20776;-74
2023/05/09 06:43:57;;;;;;;45.22;29.40;;;14.60;99.90;;;13.79;100.00;97437.13;6152677;23;20838;-75
2023/05/09 06:46:23;;;;;;;45.45;30.17;;;14.60;99.90;;;13.71;100.00;97439.53;6153342;23;20839;-74
2023/05/09 06:48:49;;;;;;;44.72;27.13;;;14.50;99.90;;;13.85;100.00;97436.03;6152829;23;20371;-75
2023/05/09 06:51:15;;;;;;;41.88;26.55;;;14.60;99.90;;;13.92;100.00;97439.22;6152594;23;20376;-74
2023/05/09 06:53:43;;;;;;;46.17;30.10;;;14.70;99.90;;;13.90;100.00;97432.59;6152872;23;20452;-74
2023/05/09 06:56:08;;;;;;;48.85;31.17;;;14.60;99.90;;;13.88;100.00;97426.72;6151170;23;20371;-75
2023/05/09 06:58:35;;;;;;;44.42;27.75;;;14.60;99.90;;;14.03;100.00;97428.53;6153196;23;20367;-74
2023/05/09 07:01:01;;;;;;;44.08;28.40;;;14.70;99.90;;;14.14;100.00;97430.06;6151162;23;20910;-74
2023/05/09 07:03:27;;;;;;;39.43;24.87;;;14.90;99.90;;;14.29;100.00;97424.69;6152993;23;20409;-74
2023/05/09 07:05:55;;;;;;;45.00;28.85;;;15.00;99.90;;;14.46;100.00;97419.06;6152679;23;20458;-74
2023/05/09 07:08:21;;;;;;;39.85;26.50;;;15.20;99.90;;;14.57;100.00;97416.06;6152787;23;20374;-74
2023/05/09 07:10:48;;;;;;;47.93;30.00;;;15.30;99.90;;;14.40;100.00;97415.63;6150961;23;20831;-74
2023/05/09 07:13:14;;;;;;;42.55;27.85;;;15.20;99.90;;;14.38;100.00;97419.59;6152512;23;20374;-75
2023/05/09 07:15:40;;;;;;;42.47;27.77;;;15.10;99.90;;;14.58;100.00;97415.00;6152780;23;20707;-75
2023/05/09 07:18:06;;;;;;;38.67;26.25;;;15.30;99.90;;;14.68;100.00;97409.59;6152571;23;20390;-75
2023/05/09 07:20:32;;;;;;;43.37;28.27;;;15.40;99.90;;;14.62;100.00;97404.56;6152218;23;20378;-75
2023/05/09 07:22:58;;;;;;;43.60;28.38;;;15.30;99.90;;;14.64;100.00;97402.44;6152512;23;20371;-75
2023/05/09 07:25:24;;;;;;;42.65;30.17;;;15.40;99.90;;;14.70;100.00;97393.34;6153358;23;20371;-75
2023/05/09 07:27:51;;;;;;;40.72;28.40;;;15.40;99.90;;;14.61;100.00;97387.00;6152635;23;20386;-75
2023/05/09 07:30:17;;;;;;;41.15;29.33;;;15.30;99.90;;;14.56;100.00;97379.03;6150566;23;20889;-75
2023/05/09 07:32:43;;;;;;;47.17;30.25;;;15.30;99.90;;;14.70;100.00;97369.34;6153198;23;20371;-74
2023/05/09 07:35:09;;;;;;;41.83;29.15;;;15.40;99.90;;;14.68;100.00;97372.28;6154471;23;20450;-74
2023/05/09 07:37:35;;;;;;;41.60;28.27;;;15.40;99.90;;;14.73;100.00;97369.59;6154766;23;20383;-74
2023/05/09 07:40:02;;;;;;;45.87;30.40;;;15.50;99.90;;;14.70;100.00;97358.69;6154180;23;20371;-74
2023/05/09 07:42:29;;;;;;;39.53;26.67;;;15.40;99.90;;;14.76;100.00;97354.91;6154537;23;20422;-74
2023/05/09 07:44:58;;;;;;;41.83;28.37;;;15.40;99.90;;;14.77;100.00;97363.72;6154637;23;20375;-75
2023/05/09 07:47:23;;;;;;;46.83;28.80;;;15.50;99.90;;;14.83;100.00;97360.72;6154566;23;20363;-74
2023/05/09 07:49:50;;;;;;;42.13;27.58;;;15.50;99.90;;;14.83;100.00;97352.72;6154234;23;20993;-74
2023/05/09 07:52:16;;;;;;;29.13;21.70;;;15.60;99.90;;;14.92;100.00;97347.59;6154055;23;20375;-74
2023/05/09 07:54:42;;;;;;;39.67;26.63;;;15.60;99.90;;;14.96;100.00;97352.09;6154436;23;20450;-73
2023/05/09 07:57:08;;;;;;;41.35;25.58;;;15.70;99.90;;;14.89;100.00;97348.94;6153896;23;20473;-74
2023/05/09 07:59:34;;;;;;;35.75;24.10;;;15.60;99.90;;;15.22;100.00;97344.66;6153807;23;20378;-74
2023/05/09 08:02:02;;;;;;;33.03;23.25;;;15.90;99.90;;;15.20;100.00;97336.16;6154094;23;20371;-74
2023/05/09 08:04:28;;;;;;;34.53;23.75;;;15.90;99.90;;;15.38;100.00;97329.31;6154769;23;20381;-74
2023/05/09 08:06:54;;;;;;;33.65;23.83;;;16.00;99.90;;;15.41;100.00;97323.41;6154961;23;20395;-74
2023/05/09 08:09:20;;;;;;;32.05;23.25;;;16.10;99.90;;;15.41;100.00;97310.84;6154700;23;20427;-73
2023/05/09 08:11:46;;;;;;;27.20;19.27;;;16.10;99.90;;;15.44;100.00;97309.50;6154210;23;20450;-74
2023/05/09 08:14:12;;;;;;;24.67;18.13;;;16.10;99.90;;;15.42;100.00;97300.97;6154340;23;20446;-74
2023/05/09 08:16:38;;;;;;;27.67;19.63;;;16.10;99.90;;;15.47;100.00;97309.75;6154197;23;20798;-75
2023/05/09 08:19:05;;;;;;;28.65;16.15;;;16.20;99.90;;;15.37;100.00;97309.84;6154786;23;20371;-74
2023/05/09 08:21:31;;;;;;;21.90;15.43;;;16.10;99.90;;;15.57;100.00;97305.38;6154172;23;20398;-74
2023/05/09 08:23:57;;;;;;;24.38;14.93;;;16.20;99.90;;;15.63;100.00;97299.72;6154426;23;20367;-74
2023/05/09 08:26:23;;;;;;;21.35;14.07;;;16.30;99.90;;;15.71;100.00;97296.38;6154342;23;20764;-74
2023/05/09 08:28:49;;;;;;;28.83;18.90;;;16.40;99.90;;;15.66;100.00;97293.00;6154315;23;20367;-74
2023/05/09 08:31:15;;;;;;;23.98;15.80;;;16.40;99.90;;;15.75;100.00;97289.41;6152430;23;20747;-74
2023/05/09 08:33:41;;;;;;;18.13;13.30;;;16.40;99.90;;;15.91;100.00;97281.22;6152685;23;20446;-74
2023/05/09 08:36:08;;;;;;;14.85;10.45;;;16.50;99.90;;;15.97;100.00;97280.06;6154236;23;20421;-74
2023/05/09 08:38:35;;;;;;;15.40;11.05;;;16.60;99.90;;;16.01;100.00;97273.88;6153914;23;20514;-74
2023/05/09 08:41:02;;;;;;;7.30;5.70;;;16.70;99.90;;;16.03;100.00;97273.56;6153475;23;20395;-74
2023/05/09 08:43:28;;;;;;;8.38;5.70;;;16.70;99.90;;;16.10;100.00;97271.31;6153643;23;20377;-74
2023/05/09 08:45:57;;;;;;;10.50;7.40;;;16.80;99.90;;;16.19;100.00;97269.59;6152552;23;20371;-74
2023/05/09 08:48:24;;;;;;;11.65;9.02;;;16.90;99.90;;;16.45;100.00;97270.00;6153222;23;20359;-74
2023/05/09 08:50:50;;;;;;;10.85;7.70;;;17.10;99.90;;;16.47;100.00;97273.97;6153647;23;20501;-74
2023/05/09 08:53:18;;;;;;;12.80;7.28;;;17.10;99.90;;;16.59;100.00;97274.31;6153965;23;20363;-74
2023/05/09 08:55:45;;;;;;;10.38;7.00;;;17.30;99.90;;;16.82;100.00;97269.97;6153829;23;20378;-74
2023/05/09 08:58:12;;;;;;;11.60;8.13;;;17.40;99.90;;;17.02;100.00;97276.81;6153695;23;20465;-75
2023/05/09 09:00:40;;;;;;;11.85;8.68;;;17.60;99.90;;;17.07;100.00;97266.03;6153664;23;20461;-74
2023/05/09 09:03:06;;;;;;;9.15;6.32;;;17.70;99.90;;;17.22;100.00;97264.94;6153182;23;20506;-74
2023/05/09 09:05:35;;;;;;;12.85;10.20;;;17.80;99.90;;;17.25;100.00;97275.88;6153838;23;20371;-75
2023/05/09 09:08:02;;;;;;;18.02;12.13;;;17.80;99.90;;;17.28;100.00;97272.63;6153594;23;20359;-74
2023/05/09 09:10:32;;;;;;;16.20;11.53;;;17.90;99.90;;;17.28;100.00;97264.59;6153530;23;20854;-75
2023/05/09 09:12:58;;;;;;;13.82;10.23;;;17.90;99.90;;;17.28;100.00;97255.78;6153751;23;20359;-75
2023/05/09 09:15:28;;;;;;;19.77;11.80;;;17.90;99.90;;;17.22;100.00;97260.41;6153868;23;20386;-75
2023/05/09 09:17:58;;;;;;;15.98;10.25;;;17.80;99.90;;;17.23;100.00;97243.25;6153488;23;20385;-75
2023/05/09 09:20:27;;;;;;;11.32;9.00;;;17.90;99.90;;;17.36;100.00;97245.16;6153469;23;20810;-75
2023/05/09 09:22:59;;;;;;;12.75;9.77;;;17.90;99.90;;;17.41;100.00;97244.25;6152023;23;20375;-74
2023/05/09 09:25:25;;;;;;;15.18;9.93;;;18.00;99.90;;;17.42;100.00;97235.16;6153707;23;20363;-75
2023/05/09 09:27:52;;;;;;;18.42;13.27;;;18.10;99.90;;;17.34;100.00;97244.66;6153714;23;20478;-74
2023/05/09 09:30:22;;;;;;;15.73;12.02;;;17.90;99.90;;;17.27;100.00;97236.25;6153626;23;20672;-74
2023/05/09 09:32:47;;;;;;;14.93;10.63;;;17.90;99.90;;;17.27;100.00;97236.25;6153614;23;20395;-74
2023/05/09 09:35:14;;;;;;;17.17;12.18;;;17.90;99.90;;;17.22;100.00;97233.66;6153428;23;20677;-75
2023/05/09 09:37:42;;;;;;;14.82;10.73;;;17.90;99.90;;;17.24;100.00;97222.66;6153947;23;20525;-75
2023/05/09 09:40:10;;;;;;;12.07;9.02;;;17.90;99.90;;;17.28;100.00;97224.47;6153738;23;20885;-76
2023/05/09 09:42:41;;;;;;;15.27;10.65;;;17.90;99.90;;;17.27;100.00;97222.88;6154343;23;20739;-75
2023/05/09 09:45:11;;;;;;;12.90;9.10;;;17.90;99.90;;;17.39;100.00;97220.47;6154128;23;20474;-76
2023/05/09 09:47:37;;;;;;;11.30;8.93;;;18.00;99.90;;;17.66;100.00;97213.53;6153710;23;20355;-76
2023/05/09 09:50:11;;;;;;;13.32;9.50;;;18.20;99.90;;;17.73;100.00;97206.69;6153281;23;20367;-75
2023/05/09 09:52:43;;;;;;;12.80;8.27;;;18.30;99.90;;;18.04;100.00;97203.34;6152000;23;20375;-76
2023/05/09 09:55:09;;;;;;;13.40;8.93;;;18.50;99.90;;;18.40;100.00;97195.22;6153441;23;20368;-77
2023/05/09 09:57:38;;;;;;;10.90;8.38;;;18.90;99.90;;;18.73;100.00;97187.72;6151960;23;20825;-77
2023/05/09 10:00:06;;;;;;;12.05;9.25;;;19.20;99.90;;;19.06;100.00;97185.50;6153325;23;20399;-76